createdAt,value
2019-02-24T00:00:39.343Z,3.43
2019-02-24T00:03:07.276Z,3.30
2019-02-24T00:05:35.402Z,3.17
2019-02-24T00:08:03.344Z,3.03
2019-02-24T00:10:31.499Z,4.00
2019-02-24T00:12:59.410Z,3.30
2019-02-24T00:15:27.318Z,3.13
2019-02-24T00:17:55.341Z,2.63
2019-02-24T00:20:23.189Z,2.93
2019-02-24T00:22:51.259Z,2.73
2019-02-24T00:25:19.539Z,2.80
2019-02-24T00:27:47.409Z,2.97
2019-02-24T00:30:15.568Z,3.30
2019-02-24T00:32:43.535Z,3.23
2019-02-24T00:35:11.432Z,3.13
2019-02-24T00:37:39.581Z,2.77
2019-02-24T00:40:07.495Z,3.13
2019-02-24T00:42:35.667Z,3.40
2019-02-24T00:45:03.986Z,3.50
2019-02-24T00:47:31.906Z,2.93
2019-02-24T00:49:59.745Z,3.53
2019-02-24T00:52:27.603Z,3.07
2019-02-24T00:54:55.467Z,3.07
2019-02-24T00:57:23.511Z,3.03
2019-02-24T00:59:51.354Z,2.97
2019-02-24T01:02:19.376Z,2.60
2019-02-24T01:04:47.276Z,2.87
2019-02-24T01:07:15.211Z,2.73
2019-02-24T01:09:43.335Z,2.70
2019-02-24T01:12:11.323Z,2.97
2019-02-24T01:14:39.322Z,3.17
2019-02-24T01:17:07.403Z,3.10
2019-02-24T01:19:35.303Z,2.77
2019-02-24T01:22:03.170Z,3.20
2019-02-24T01:24:31.147Z,2.80
2019-02-24T01:26:59.140Z,3.00
2019-02-24T01:29:27.081Z,2.70
2019-02-24T01:31:55.168Z,3.30
2019-02-24T01:34:23.274Z,2.63
2019-02-24T01:36:51.228Z,2.40
2019-02-24T01:39:19.145Z,2.50
2019-02-24T01:41:47.103Z,2.97
2019-02-24T01:44:15.107Z,3.43
2019-02-24T01:46:43.049Z,3.43
2019-02-24T01:49:11.085Z,3.40
2019-02-24T01:51:38.996Z,3.63
2019-02-24T01:54:06.947Z,3.00
2019-02-24T01:56:34.855Z,3.17
2019-02-24T01:59:02.922Z,3.33
2019-02-24T02:01:30.764Z,3.03
2019-02-24T02:03:59.039Z,3.10
2019-02-24T02:06:27.380Z,3.50
2019-02-24T02:08:55.433Z,4.13
2019-02-24T02:11:23.478Z,3.40
2019-02-24T02:13:51.763Z,3.17
2019-02-24T02:16:19.702Z,3.50
2019-02-24T02:18:47.676Z,3.70
2019-02-24T02:21:15.585Z,3.80
2019-02-24T02:23:43.540Z,3.60
2019-02-24T02:26:11.443Z,4.30
2019-02-24T02:28:44.047Z,3.90
2019-02-24T02:31:08.968Z,3.80
2019-02-24T02:33:36.809Z,4.90
2019-02-24T02:36:04.785Z,4.27
2019-02-24T02:38:32.794Z,5.67
2019-02-24T02:41:00.991Z,4.47
2019-02-24T02:43:29.043Z,4.77
2019-02-24T02:45:56.990Z,4.17
2019-02-24T02:48:24.956Z,4.47
2019-02-24T02:50:52.888Z,4.10
2019-02-24T02:53:21.124Z,4.40
2019-02-24T02:55:49.124Z,4.23
2019-02-24T02:58:17.138Z,4.63
2019-02-24T03:00:45.092Z,3.80
2019-02-24T03:03:13.063Z,4.90
2019-02-24T03:05:45.079Z,4.93
2019-02-24T03:08:14.753Z,4.30
2019-02-24T03:10:42.732Z,4.70
2019-02-24T03:13:10.779Z,4.30
2019-02-24T03:15:38.775Z,4.90
2019-02-24T03:18:06.942Z,4.70
2019-02-24T03:20:35.012Z,4.77
2019-02-24T03:23:02.977Z,4.97
2019-02-24T03:25:31.065Z,4.33
2019-02-24T03:27:59.039Z,4.50
2019-02-24T03:30:27.184Z,4.63
2019-02-24T03:32:55.271Z,5.00
2019-02-24T03:35:23.224Z,5.23
2019-02-24T03:37:51.142Z,4.67
2019-02-24T03:40:19.109Z,4.90
2019-02-24T03:42:47.101Z,4.57
2019-02-24T03:45:15.070Z,4.37
2019-02-24T03:47:43.060Z,4.60
2019-02-24T03:50:10.990Z,4.87
2019-02-24T03:52:38.985Z,4.73
2019-02-24T03:55:06.890Z,4.60
2019-02-24T03:57:35.200Z,4.50
2019-02-24T04:00:03.742Z,4.27
2019-02-24T04:02:31.738Z,4.67
2019-02-24T04:04:59.619Z,4.70
2019-02-24T04:07:27.593Z,4.60
2019-02-24T04:09:55.577Z,4.63
2019-02-24T04:12:23.584Z,4.60
2019-02-24T04:14:51.513Z,5.00
2019-02-24T04:17:19.602Z,5.00
2019-02-24T04:19:47.540Z,4.93
2019-02-24T04:22:15.478Z,5.00
2019-02-24T04:24:43.367Z,4.93
2019-02-24T04:27:11.821Z,5.17
2019-02-24T04:29:39.760Z,4.50
2019-02-24T04:32:08.338Z,4.73
2019-02-24T04:34:36.629Z,5.47
2019-02-24T04:37:04.835Z,5.00
2019-02-24T04:39:32.850Z,4.47
2019-02-24T04:42:00.911Z,4.87
2019-02-24T04:44:28.859Z,4.93
2019-02-24T04:46:56.828Z,5.67
2019-02-24T04:49:24.813Z,4.90
2019-02-24T04:51:52.715Z,5.10
2019-02-24T04:54:20.853Z,5.20
2019-02-24T04:56:48.924Z,4.70
2019-02-24T04:59:17.041Z,5.00
2019-02-24T05:01:45.033Z,4.63
2019-02-24T05:04:13.131Z,4.83
2019-02-24T05:06:41.184Z,4.73
2019-02-24T05:09:09.185Z,4.60
2019-02-24T05:11:37.320Z,4.87
2019-02-24T05:14:05.261Z,4.47
2019-02-24T05:16:33.230Z,5.50
2019-02-24T05:19:01.350Z,4.73
2019-02-24T05:21:29.337Z,5.00
2019-02-24T05:23:57.495Z,4.30
2019-02-24T05:26:25.678Z,4.57
2019-02-24T05:28:53.627Z,4.30
2019-02-24T05:31:21.671Z,4.77
2019-02-24T05:33:49.601Z,4.20
2019-02-24T05:36:17.576Z,4.93
2019-02-24T05:38:45.515Z,4.10
2019-02-24T05:41:13.514Z,4.57
2019-02-24T05:43:41.459Z,4.70
2019-02-24T05:46:09.361Z,4.23
2019-02-24T05:48:37.484Z,4.37
2019-02-24T05:51:05.546Z,4.70
2019-02-24T05:53:33.715Z,4.90
2019-02-24T05:56:01.668Z,4.40
2019-02-24T05:58:29.532Z,4.67
2019-02-24T06:00:57.670Z,4.20
2019-02-24T06:03:25.645Z,4.40
2019-02-24T06:05:53.602Z,4.80
2019-02-24T06:08:21.774Z,4.73
2019-02-24T06:10:49.687Z,3.70
2019-02-24T06:13:17.592Z,3.93
2019-02-24T06:15:45.828Z,4.60
2019-02-24T06:18:13.726Z,4.13
2019-02-24T06:20:41.757Z,4.83
2019-02-24T06:23:09.759Z,4.40
2019-02-24T06:25:37.838Z,4.27
2019-02-24T06:28:07.335Z,4.07
2019-02-24T06:30:35.362Z,3.77
2019-02-24T06:33:03.373Z,4.80
2019-02-24T06:35:31.432Z,4.27
2019-02-24T06:37:59.403Z,4.30
2019-02-24T06:40:27.323Z,5.20
2019-02-24T06:42:55.174Z,4.23
2019-02-24T06:45:23.152Z,4.00
2019-02-24T06:47:51.120Z,4.10
2019-02-24T06:50:19.210Z,4.50
2019-02-24T06:52:47.386Z,4.37
2019-02-24T06:55:15.338Z,3.80
2019-02-24T06:57:43.387Z,4.30
2019-02-24T07:00:14.218Z,4.90
2019-02-24T07:02:41.375Z,4.43
2019-02-24T07:05:09.362Z,4.70
2019-02-24T07:07:37.384Z,4.77
2019-02-24T07:10:06.179Z,4.60
2019-02-24T07:12:34.513Z,3.97
2019-02-24T07:15:02.444Z,4.33
2019-02-24T07:17:30.420Z,4.70
2019-02-24T07:19:58.415Z,4.20
2019-02-24T07:22:26.357Z,4.20
2019-02-24T07:24:54.243Z,4.30
2019-02-24T07:27:22.164Z,4.23
2019-02-24T07:29:50.396Z,4.80
2019-02-24T07:32:18.346Z,4.83
2019-02-24T07:34:46.295Z,4.73
2019-02-24T07:37:14.341Z,4.20
2019-02-24T07:39:42.467Z,4.40
2019-02-24T07:42:10.409Z,4.10
2019-02-24T07:44:38.465Z,4.40
2019-02-24T07:47:06.454Z,4.23
2019-02-24T07:49:34.329Z,3.93
2019-02-24T07:52:02.287Z,4.50
2019-02-24T07:54:30.234Z,4.67
2019-02-24T07:56:58.202Z,4.13
2019-02-24T07:59:26.434Z,4.40
2019-02-24T08:01:54.337Z,3.83
2019-02-24T08:04:22.235Z,3.60
2019-02-24T08:06:50.322Z,4.00
2019-02-24T08:09:18.307Z,4.10
2019-02-24T08:11:46.163Z,4.20
2019-02-24T08:14:14.068Z,3.80
2019-02-24T08:16:42.107Z,4.33
2019-02-24T08:19:10.199Z,4.00
2019-02-24T08:21:38.576Z,4.20
2019-02-24T08:24:06.472Z,3.90
2019-02-24T08:26:34.526Z,3.70
2019-02-24T08:29:02.675Z,3.73
2019-02-24T08:31:30.537Z,3.70
2019-02-24T08:33:58.648Z,3.17
2019-02-24T08:36:26.764Z,3.97
2019-02-24T08:38:54.876Z,3.60
2019-02-24T08:41:22.837Z,3.77
2019-02-24T08:43:51.093Z,3.20
2019-02-24T08:46:19.202Z,3.40
2019-02-24T08:48:47.359Z,3.83
2019-02-24T08:51:15.343Z,3.57
2019-02-24T08:53:43.311Z,3.80
2019-02-24T08:56:11.238Z,3.20
2019-02-24T08:58:39.415Z,3.27
2019-02-24T09:01:07.280Z,3.13
2019-02-24T09:03:35.179Z,3.57
2019-02-24T09:06:03.049Z,3.40
2019-02-24T09:08:31.117Z,2.70
2019-02-24T09:10:59.069Z,3.23
2019-02-24T09:13:26.939Z,3.00
2019-02-24T09:15:54.824Z,3.13
2019-02-24T09:18:22.668Z,3.10
2019-02-24T09:20:50.694Z,2.87
2019-02-24T09:23:19.010Z,3.03
2019-02-24T09:25:46.923Z,2.90
2019-02-24T09:28:14.870Z,3.10
2019-02-24T09:30:42.811Z,3.10
2019-02-24T09:33:10.755Z,3.10
2019-02-24T09:35:38.597Z,3.13
2019-02-24T09:38:06.432Z,3.57
2019-02-24T09:40:34.491Z,3.40
2019-02-24T09:43:02.456Z,2.70
2019-02-24T09:45:30.266Z,2.80
2019-02-24T09:47:58.330Z,2.80
2019-02-24T09:50:26.647Z,3.60
2019-02-24T09:52:54.837Z,2.73
2019-02-24T09:55:22.973Z,3.07
2019-02-24T09:57:51.619Z,3.17
2019-02-24T10:00:21.866Z,2.97
2019-02-24T10:02:49.651Z,3.17
2019-02-24T10:05:18.152Z,3.30
2019-02-24T10:07:46.407Z,2.70
2019-02-24T10:10:14.583Z,2.90
2019-02-24T10:12:42.707Z,2.57
2019-02-24T10:15:10.873Z,3.17
2019-02-24T10:17:38.998Z,2.77
2019-02-24T10:20:07.546Z,3.00
2019-02-24T10:22:37.196Z,3.20
2019-02-24T10:25:06.022Z,3.20
2019-02-24T10:27:34.087Z,3.07
2019-02-24T10:30:02.027Z,2.83
2019-02-24T10:32:29.917Z,3.10
2019-02-24T10:34:57.959Z,3.20
2019-02-24T10:37:25.908Z,2.97
2019-02-24T10:39:53.872Z,2.80
2019-02-24T10:42:21.857Z,2.60
2019-02-24T10:44:49.849Z,2.90
2019-02-24T10:47:17.863Z,2.70
2019-02-24T10:49:45.848Z,3.00
2019-02-24T10:52:13.779Z,2.70
2019-02-24T10:54:41.635Z,2.60
2019-02-24T10:57:12.893Z,2.73
2019-02-24T10:59:39.313Z,2.80
2019-02-24T11:02:07.177Z,2.70
2019-02-24T11:04:35.108Z,2.60
2019-02-24T11:07:03.121Z,2.43
2019-02-24T11:09:31.276Z,2.60
2019-02-24T11:11:59.384Z,2.60
2019-02-24T11:14:27.338Z,2.87
2019-02-24T11:16:56.070Z,2.80
2019-02-24T11:19:24.175Z,2.30
2019-02-24T11:21:52.343Z,2.40
2019-02-24T11:24:20.416Z,2.60
2019-02-24T11:26:53.568Z,2.77
2019-02-24T11:29:21.877Z,2.40
2019-02-24T11:31:50.830Z,2.50
2019-02-24T11:34:19.667Z,2.47
2019-02-24T11:36:49.044Z,2.67
2019-02-24T11:39:17.588Z,2.73
2019-02-24T11:41:46.156Z,3.07
2019-02-24T11:44:14.717Z,2.90
2019-02-24T11:46:45.624Z,3.10
2019-02-24T11:49:13.436Z,3.00
2019-02-24T11:51:41.672Z,2.97
2019-02-24T11:54:09.809Z,2.60
2019-02-24T11:56:38.103Z,2.63
2019-02-24T11:59:06.435Z,2.53
2019-02-24T12:01:34.349Z,2.50
2019-02-24T12:04:02.230Z,2.87
2019-02-24T12:06:30.230Z,2.93
2019-02-24T12:09:05.081Z,2.97
2019-02-24T12:11:27.823Z,2.83
2019-02-24T12:13:55.834Z,2.83
2019-02-24T12:16:23.702Z,2.63
2019-02-24T12:18:51.797Z,3.20
2019-02-24T12:21:19.892Z,2.73
2019-02-24T12:23:47.890Z,3.33
2019-02-24T12:26:15.765Z,3.00
2019-02-24T12:28:43.735Z,2.90
2019-02-24T12:31:12.124Z,2.77
2019-02-24T12:33:40.064Z,3.67
2019-02-24T12:36:08.023Z,3.07
2019-02-24T12:38:36.216Z,3.33
2019-02-24T12:41:04.173Z,2.73
2019-02-24T12:43:32.273Z,3.00
2019-02-24T12:46:00.382Z,2.90
2019-02-24T12:48:28.492Z,3.10
2019-02-24T12:50:56.563Z,2.73
2019-02-24T12:53:24.535Z,3.13
2019-02-24T12:55:52.448Z,2.87
2019-02-24T12:58:20.570Z,3.30
2019-02-24T13:00:48.575Z,2.67
2019-02-24T13:03:23.810Z,3.27
2019-02-24T13:05:46.461Z,2.97
2019-02-24T13:08:14.764Z,3.40
2019-02-24T13:10:42.785Z,2.83
2019-02-24T13:13:11.046Z,3.30
2019-02-24T13:15:39.129Z,3.10
2019-02-24T13:18:07.213Z,3.50
2019-02-24T13:20:35.303Z,3.63
2019-02-24T13:23:03.637Z,3.07
2019-02-24T13:25:31.710Z,3.50
2019-02-24T13:27:59.609Z,3.43
2019-02-24T13:30:27.491Z,3.90
2019-02-24T13:32:55.353Z,2.70
2019-02-24T13:35:24.893Z,3.43
2019-02-24T13:37:52.863Z,3.00
2019-02-24T13:40:20.788Z,3.80
2019-02-24T13:42:48.778Z,3.13
2019-02-24T13:45:17.126Z,3.40
2019-02-24T13:47:45.189Z,3.60
2019-02-24T13:50:14.516Z,3.30
2019-02-24T13:52:42.643Z,3.10
2019-02-24T13:55:28.533Z,3.70
2019-02-24T13:57:57.560Z,3.53
2019-02-24T14:00:25.606Z,3.50
2019-02-24T14:02:53.720Z,2.90
2019-02-24T14:05:22.081Z,2.93
2019-02-24T14:07:49.955Z,3.33
2019-02-24T14:10:17.852Z,3.07
2019-02-24T14:12:45.776Z,2.70
2019-02-24T14:15:13.859Z,2.87
2019-02-24T14:17:41.900Z,3.03
2019-02-24T14:20:10.316Z,3.07
2019-02-24T14:22:38.528Z,3.27
2019-02-24T14:25:06.655Z,2.43
2019-02-24T14:27:34.594Z,3.30
2019-02-24T14:30:02.586Z,2.97
2019-02-24T14:32:33.090Z,3.10
2019-02-24T14:35:00.224Z,3.37
2019-02-24T14:37:28.109Z,2.70
2019-02-24T14:39:56.027Z,3.23
2019-02-24T14:42:23.864Z,2.83
2019-02-24T14:44:52.155Z,2.60
2019-02-24T14:47:20.348Z,2.73
2019-02-24T14:49:48.416Z,2.97
2019-02-24T14:52:16.505Z,2.67
2019-02-24T14:54:44.400Z,3.10
2019-02-24T14:57:12.308Z,2.70
2019-02-24T14:59:40.282Z,2.33
2019-02-24T15:02:08.229Z,2.70
2019-02-24T15:04:36.557Z,2.57
2019-02-24T15:07:04.477Z,2.67
2019-02-24T15:09:32.399Z,2.53
2019-02-24T15:12:00.450Z,3.10
2019-02-24T15:14:28.319Z,2.47
2019-02-24T15:16:56.291Z,2.70
2019-02-24T15:19:24.173Z,2.90
2019-02-24T15:21:52.158Z,2.80
2019-02-24T15:24:20.115Z,3.03
2019-02-24T15:26:48.264Z,3.20
2019-02-24T15:29:16.559Z,2.90
2019-02-24T15:31:44.495Z,3.00
2019-02-24T15:34:12.422Z,3.30
2019-02-24T15:36:40.338Z,2.83
2019-02-24T15:39:08.381Z,2.77
2019-02-24T15:41:36.308Z,2.90
2019-02-24T15:44:04.309Z,3.30
2019-02-24T15:46:32.247Z,3.10
2019-02-24T15:49:00.355Z,3.60
2019-02-24T15:51:29.802Z,3.00
2019-02-24T15:53:58.146Z,2.77
2019-02-24T15:56:26.332Z,3.00
2019-02-24T15:58:54.296Z,3.53
2019-02-24T16:01:22.481Z,4.10
2019-02-24T16:03:50.835Z,3.07
2019-02-24T16:06:18.953Z,3.30
2019-02-24T16:08:46.830Z,3.80
2019-02-24T16:11:14.722Z,2.80
2019-02-24T16:13:42.652Z,3.27
2019-02-24T16:16:10.759Z,2.53
2019-02-24T16:18:38.695Z,3.10
2019-02-24T16:21:06.665Z,2.80
2019-02-24T16:23:34.646Z,2.50
2019-02-24T16:26:02.743Z,2.77
2019-02-24T16:28:30.765Z,2.43
2019-02-24T16:30:58.768Z,2.40
2019-02-24T16:33:27.149Z,2.87
2019-02-24T16:35:55.075Z,2.63
2019-02-24T16:38:23.044Z,3.60
2019-02-24T16:40:50.941Z,3.63
2019-02-24T16:43:18.890Z,4.17
2019-02-24T16:45:46.753Z,4.80
2019-02-24T16:48:14.705Z,6.33
2019-02-24T16:50:42.581Z,5.80
2019-02-24T16:53:10.444Z,8.07
2019-02-24T16:55:38.382Z,6.10
2019-02-24T16:58:06.371Z,6.93
2019-02-24T17:00:34.820Z,5.77
2019-02-24T17:03:02.840Z,6.00
2019-02-24T17:05:30.927Z,7.47
2019-02-24T17:07:58.740Z,7.50
2019-02-24T17:10:26.644Z,7.00
2019-02-24T17:12:54.645Z,7.37
2019-02-24T17:15:22.700Z,7.17
2019-02-24T17:17:51.192Z,9.73
2019-02-24T17:20:19.192Z,7.80
2019-02-24T17:22:47.083Z,6.53
2019-02-24T17:25:14.906Z,7.13
2019-02-24T17:27:42.956Z,6.83
2019-02-24T17:30:11.426Z,6.37
2019-02-24T17:32:39.437Z,6.30
2019-02-24T17:35:07.693Z,6.23
2019-02-24T17:37:35.879Z,6.43
2019-02-24T17:40:04.121Z,6.43
2019-02-24T17:42:32.019Z,6.10
2019-02-24T17:44:59.885Z,6.53
2019-02-24T17:47:27.724Z,6.17
2019-02-24T17:49:55.623Z,6.70
2019-02-24T17:52:23.563Z,7.10
2019-02-24T17:54:51.419Z,7.23
2019-02-24T17:57:19.251Z,6.30
2019-02-24T17:59:47.234Z,7.57
2019-02-24T18:02:15.207Z,7.77
2019-02-24T18:04:43.203Z,7.13
2019-02-24T18:07:11.278Z,6.60
2019-02-24T18:09:39.182Z,6.83
2019-02-24T18:12:07.118Z,7.03
2019-02-24T18:14:35.209Z,7.10
2019-02-24T18:17:03.113Z,6.50
2019-02-24T18:19:31.064Z,7.17
2019-02-24T18:21:59.018Z,7.33
2019-02-24T18:24:27.096Z,8.03
2019-02-24T18:26:55.394Z,8.03
2019-02-24T18:29:23.590Z,7.97
2019-02-24T18:31:51.646Z,6.70
2019-02-24T18:34:20.116Z,7.53
2019-02-24T18:36:48.362Z,7.00
2019-02-24T18:39:16.399Z,6.90
2019-02-24T18:41:44.252Z,6.60
2019-02-24T18:44:12.321Z,6.77
2019-02-24T18:46:40.206Z,6.10
2019-02-24T18:49:08.101Z,6.00
2019-02-24T18:51:36.113Z,5.53
2019-02-24T18:54:03.959Z,6.20
2019-02-24T18:56:31.843Z,6.47
2019-02-24T18:58:59.785Z,6.40
2019-02-24T19:01:27.634Z,6.60
2019-02-24T19:03:58.007Z,7.43
2019-02-24T19:06:25.363Z,5.70
2019-02-24T19:08:53.235Z,6.10
2019-02-24T19:11:21.112Z,5.43
2019-02-24T19:13:48.991Z,6.17
2019-02-24T19:16:16.852Z,6.40
2019-02-24T19:18:44.832Z,6.57
2019-02-24T19:21:13.100Z,5.60
2019-02-24T19:23:40.962Z,6.03
2019-02-24T19:26:08.979Z,6.00
2019-02-24T19:28:36.836Z,6.03
2019-02-24T19:31:04.764Z,5.27
2019-02-24T19:33:32.596Z,6.10
2019-02-24T19:36:00.680Z,6.17
2019-02-24T19:38:28.813Z,5.37
2019-02-24T19:40:56.708Z,5.47
2019-02-24T19:43:26.617Z,6.07
2019-02-24T19:45:54.659Z,5.50
2019-02-24T19:48:22.582Z,5.67
2019-02-24T19:50:50.424Z,4.80
2019-02-24T19:53:21.079Z,5.43
2019-02-24T19:55:48.909Z,5.60
2019-02-24T19:58:16.880Z,5.70
2019-02-24T20:00:44.786Z,5.77
2019-02-24T20:03:12.673Z,5.20
2019-02-24T20:05:43.038Z,4.43
2019-02-24T20:08:12.687Z,5.33
2019-02-24T20:10:40.609Z,5.50
2019-02-24T20:13:08.552Z,5.40
2019-02-24T20:15:36.374Z,5.27
2019-02-24T20:18:04.225Z,6.07
2019-02-24T20:20:32.102Z,5.70
2019-02-24T20:23:00.004Z,6.30
2019-02-24T20:25:27.911Z,5.90
2019-02-24T20:27:55.785Z,5.13
2019-02-24T20:30:24.824Z,5.73
2019-02-24T20:32:52.932Z,5.40
2019-02-24T20:35:20.959Z,6.67
2019-02-24T20:37:48.837Z,5.80
2019-02-24T20:40:18.055Z,6.30
2019-02-24T20:42:46.017Z,5.63
2019-02-24T20:45:14.514Z,5.67
2019-02-24T20:47:42.438Z,6.30
2019-02-24T20:50:10.641Z,5.93
2019-02-24T20:52:38.570Z,6.47
2019-02-24T20:55:07.023Z,7.30
2019-02-24T20:57:37.891Z,6.73
2019-02-24T21:00:08.509Z,6.53
2019-02-24T21:02:36.438Z,6.63
2019-02-24T21:05:04.559Z,6.73
2019-02-24T21:07:32.820Z,6.80
2019-02-24T21:10:00.797Z,6.30
2019-02-24T21:12:29.075Z,6.20
2019-02-24T21:14:57.251Z,6.60
2019-02-24T21:17:25.384Z,6.60
2019-02-24T21:19:53.517Z,6.47
2019-02-24T21:22:21.741Z,6.10
2019-02-24T21:24:49.625Z,6.43
2019-02-24T21:27:17.526Z,6.10
2019-02-24T21:29:45.362Z,6.20
2019-02-24T21:32:13.383Z,5.50
2019-02-24T21:34:41.302Z,5.53
2019-02-24T21:37:10.653Z,5.70
2019-02-24T21:39:38.791Z,5.20
2019-02-24T21:42:08.458Z,5.40
2019-02-24T21:44:36.401Z,6.30
2019-02-24T21:47:04.267Z,5.93
2019-02-24T21:49:35.089Z,5.97
2019-02-24T21:52:03.199Z,5.47
2019-02-24T21:54:32.063Z,5.40
2019-02-24T21:57:00.034Z,5.37
2019-02-24T21:59:36.649Z,5.90
2019-02-24T22:01:57.464Z,5.40
2019-02-24T22:04:25.510Z,5.60
2019-02-24T22:06:53.378Z,5.50
2019-02-24T22:09:21.210Z,5.07
2019-02-24T22:11:49.155Z,4.87
2019-02-24T22:14:17.129Z,4.90
2019-02-24T22:16:44.997Z,5.80
2019-02-24T22:19:12.866Z,6.30
2019-02-24T22:21:40.712Z,6.07
2019-02-24T22:24:08.608Z,5.53
2019-02-24T22:26:36.577Z,5.20
2019-02-24T22:29:04.503Z,5.30
2019-02-24T22:31:33.718Z,5.43
2019-02-24T22:34:01.606Z,5.40
2019-02-24T22:36:32.560Z,4.70
2019-02-24T22:39:01.590Z,5.50
2019-02-24T22:41:29.405Z,5.50
2019-02-24T22:43:58.789Z,5.70
2019-02-24T22:46:26.715Z,5.70
2019-02-24T22:48:54.628Z,4.90
2019-02-24T22:51:22.501Z,5.13
2019-02-24T22:53:53.521Z,5.87
2019-02-24T22:56:21.471Z,5.90
2019-02-24T22:58:49.321Z,5.83
2019-02-24T23:01:21.712Z,5.97
2019-02-24T23:03:49.626Z,6.40
2019-02-24T23:06:17.466Z,5.87
2019-02-24T23:08:45.465Z,6.00
2019-02-24T23:11:13.340Z,6.50
2019-02-24T23:13:41.742Z,6.77
2019-02-24T23:16:09.589Z,6.10
2019-02-24T23:18:37.442Z,5.77
2019-02-24T23:21:05.417Z,6.50
2019-02-24T23:23:33.277Z,5.90
2019-02-24T23:26:01.792Z,6.27
2019-02-24T23:28:29.586Z,6.13
2019-02-24T23:30:57.484Z,6.30
2019-02-24T23:33:25.375Z,6.30
2019-02-24T23:35:53.285Z,6.83
2019-02-24T23:38:21.119Z,6.20
2019-02-24T23:40:49.076Z,6.50
2019-02-24T23:43:17.544Z,6.77
2019-02-24T23:45:45.478Z,6.53
2019-02-24T23:48:13.370Z,6.20
2019-02-24T23:50:41.393Z,6.50
2019-02-24T23:53:10.302Z,6.20
2019-02-24T23:55:38.291Z,6.17
2019-02-24T23:58:06.288Z,7.10
